Ballindalloch, United Kingdom
Current Conditions -  °F | °C
As of 8:50 PM on Thursday 27 Nov 2014 (Local Time) from EGQK Reporting Station
Haze Haze  
Wind Chill: 43°   Ceiling: 1300
Heat Index: 46°   Visibility: 6mi
Dew Point: 45°   Wind: 7mph
Humidity: 93%   Direction: 60°ENE
Pressure: 29.62"   Gusts: NA
Location:  57.41°N, 3.36°W
Report Text: EGQK 272050Z AUTO 06006KT 9000 BR BKN013/// 08/07 Q1003
Loading
Personal Weather Stations






























Interactive Weather Map New forecast layout! Learn more

10-Day Weather Forecast

Advertisements
Track Severe Weather on mobile